createdAt,value
2018-06-02T00:00:04.243Z,64.03
2018-06-02T00:02:35.042Z,73.23
2018-06-02T00:05:06.083Z,63.07
2018-06-02T00:07:38.766Z,77.73
2018-06-02T00:10:10.195Z,71.23
2018-06-02T00:12:41.194Z,80.87
2018-06-02T00:15:12.183Z,64.73
2018-06-02T00:17:43.216Z,71.37
2018-06-02T00:20:15.090Z,85.87
2018-06-02T00:22:46.282Z,91.40
2018-06-02T00:25:19.119Z,83.70
2018-06-02T00:27:50.235Z,89.10
2018-06-02T00:30:22.127Z,94.60
2018-06-02T00:32:53.987Z,95.10
2018-06-02T00:35:24.612Z,99.70
2018-06-02T00:37:55.463Z,104.23
2018-06-02T00:40:26.870Z,96.50
2018-06-02T00:42:58.748Z,103.80
2018-06-02T00:45:30.392Z,97.57
2018-06-02T00:48:01.372Z,95.73
2018-06-02T00:50:33.375Z,113.27
2018-06-02T00:53:04.882Z,102.37
2018-06-02T00:55:36.889Z,119.57
2018-06-02T00:58:24.748Z,121.57
2018-06-02T01:00:56.751Z,124.43
2018-06-02T01:03:27.688Z,123.10
2018-06-02T01:05:59.529Z,105.90
2018-06-02T01:08:31.233Z,136.70
2018-06-02T01:11:02.837Z,130.60
2018-06-02T01:13:33.548Z,128.17
2018-06-02T01:16:05.433Z,127.93
2018-06-02T01:18:37.422Z,124.67
2018-06-02T01:21:10.007Z,120.10
2018-06-02T01:23:43.032Z,120.00
2018-06-02T01:26:13.873Z,109.37
2018-06-02T01:28:45.187Z,99.67
2018-06-02T01:31:16.041Z,102.20
2018-06-02T01:33:47.073Z,97.37
2018-06-02T01:36:18.898Z,100.73
2018-06-02T01:38:49.931Z,107.87
2018-06-02T01:41:21.073Z,99.60
2018-06-02T01:43:51.694Z,112.70
2018-06-02T01:46:22.731Z,101.30
2018-06-02T01:48:53.645Z,97.87
2018-06-02T01:51:24.594Z,100.00
2018-06-02T01:53:57.894Z,95.07
2018-06-02T01:56:29.245Z,96.20
2018-06-02T01:59:00.337Z,90.13
2018-06-02T02:01:31.496Z,89.27
2018-06-02T02:04:06.006Z,93.27
2018-06-02T02:06:37.022Z,84.73
2018-06-02T02:09:08.003Z,85.93
2018-06-02T02:14:16.054Z,87.30
2018-06-02T02:16:46.906Z,88.60
2018-06-02T02:19:17.907Z,95.20
2018-06-02T02:21:50.174Z,96.37
2018-06-02T02:24:21.689Z,83.37
2018-06-02T02:26:52.418Z,83.80
2018-06-02T02:29:24.789Z,90.50
2018-06-02T02:31:56.085Z,81.73
2018-06-02T02:34:27.651Z,74.40
2018-06-02T02:36:58.562Z,76.83
2018-06-02T02:39:29.524Z,92.00
2018-06-02T02:42:01.713Z,86.07
2018-06-02T02:44:32.706Z,85.77
2018-06-02T02:47:03.566Z,84.20
2018-06-02T02:49:34.268Z,93.43
2018-06-02T02:52:05.344Z,85.63
2018-06-02T02:54:37.079Z,82.47
2018-06-02T02:57:07.505Z,75.53
2018-06-02T02:59:39.703Z,89.90
2018-06-02T03:02:11.474Z,78.03
2018-06-02T03:04:42.689Z,75.03
2018-06-02T03:07:14.066Z,73.07
2018-06-02T03:09:45.599Z,80.27
2018-06-02T03:12:16.377Z,64.27
2018-06-02T03:14:48.582Z,66.73
2018-06-02T03:17:19.740Z,64.67
2018-06-02T03:19:53.324Z,66.13
2018-06-02T03:22:25.625Z,60.13
2018-06-02T03:24:57.606Z,55.90
2018-06-02T03:27:28.945Z,54.83
2018-06-02T03:30:00.115Z,55.57
2018-06-02T03:32:31.073Z,57.83
2018-06-02T03:35:01.998Z,58.83
2018-06-02T03:37:33.232Z,50.07
2018-06-02T03:40:04.260Z,55.60
2018-06-02T03:42:35.937Z,55.70
2018-06-02T03:45:07.095Z,49.93
2018-06-02T03:47:39.064Z,54.13
2018-06-02T03:50:10.483Z,48.23
2018-06-02T03:52:41.365Z,53.90
2018-06-02T03:55:12.334Z,50.77
2018-06-02T03:57:43.515Z,59.87
2018-06-02T04:00:14.031Z,60.17
2018-06-02T04:02:45.734Z,61.43
2018-06-02T04:05:16.776Z,62.70
2018-06-02T04:07:47.878Z,54.17
2018-06-02T04:10:18.677Z,56.77
2018-06-02T04:12:50.746Z,57.87
2018-06-02T04:15:22.110Z,53.23
2018-06-02T04:17:53.102Z,55.13
2018-06-02T04:20:23.751Z,61.47
2018-06-02T04:22:55.144Z,68.37
2018-06-02T04:25:26.950Z,46.10
2018-06-02T04:27:57.969Z,53.17
2018-06-02T04:30:28.973Z,48.10
2018-06-02T04:33:00.114Z,53.53
2018-06-02T04:35:31.131Z,57.03
2018-06-02T04:38:02.819Z,53.37
2018-06-02T04:40:33.669Z,49.63
2018-06-02T04:43:06.222Z,46.70
2018-06-02T04:45:38.297Z,47.17
2018-06-02T04:48:10.665Z,49.13
2018-06-02T04:50:41.302Z,53.33
2018-06-02T04:53:12.675Z,48.10
2018-06-02T04:55:43.591Z,56.67
2018-06-02T04:58:15.304Z,49.33
2018-06-02T05:00:46.178Z,61.77
2018-06-02T05:03:17.325Z,53.37
2018-06-02T05:05:48.086Z,49.87
2018-06-02T05:08:18.943Z,56.73
2018-06-02T05:10:49.866Z,52.57
2018-06-02T05:13:21.711Z,54.60
2018-06-02T05:15:52.737Z,51.13
2018-06-02T05:18:23.593Z,56.50
2018-06-02T05:20:56.837Z,50.10
2018-06-02T05:23:27.774Z,52.40
2018-06-02T05:25:58.668Z,53.63
2018-06-02T05:28:29.614Z,48.87
2018-06-02T05:31:00.558Z,59.03
2018-06-02T05:33:37.449Z,53.97
2018-06-02T05:36:08.353Z,53.57
2018-06-02T05:38:39.473Z,49.83
2018-06-02T05:41:10.369Z,51.20
2018-06-02T05:43:41.761Z,56.20
2018-06-02T05:46:12.606Z,49.70
2018-06-02T05:48:43.582Z,55.03
2018-06-02T05:51:14.844Z,51.17
2018-06-02T05:53:46.186Z,49.47
2018-06-02T05:56:17.373Z,54.50
2018-06-02T05:58:48.480Z,49.47
2018-06-02T06:01:20.182Z,59.93
2018-06-02T06:03:50.946Z,52.53
2018-06-02T06:06:22.018Z,52.17
2018-06-02T06:08:53.574Z,53.13
2018-06-02T06:11:24.651Z,53.07
2018-06-02T06:13:55.778Z,70.80
2018-06-02T06:17:03.799Z,58.77
2018-06-02T06:19:59.201Z,56.17
2018-06-02T06:25:43.420Z,47.27
2018-06-02T06:28:26.233Z,51.40
2018-06-02T06:31:25.212Z,57.50
2018-06-02T06:37:05.375Z,47.00
2018-06-02T06:39:42.216Z,55.90
2018-06-02T06:42:25.889Z,48.27
2018-06-02T06:44:57.654Z,55.03
2018-06-02T06:47:29.326Z,45.57
2018-06-02T06:50:01.998Z,46.70
2018-06-02T06:52:32.815Z,49.47
2018-06-02T06:55:05.005Z,45.07
2018-06-02T06:57:36.256Z,53.77
2018-06-02T07:00:07.457Z,48.63
2018-06-02T07:02:38.491Z,54.77
2018-06-02T07:05:09.649Z,55.93
2018-06-02T07:07:41.303Z,58.13
2018-06-02T07:10:12.391Z,57.73
2018-06-02T07:12:44.193Z,55.13
2018-06-02T07:15:15.229Z,57.47
2018-06-02T07:17:46.875Z,54.80
2018-06-02T07:20:19.965Z,50.00
2018-06-02T07:22:52.968Z,55.30
2018-06-02T07:25:24.124Z,59.83
2018-06-02T07:28:04.455Z,58.87
2018-06-02T07:30:36.093Z,65.77
2018-06-02T07:33:07.234Z,51.27
2018-06-02T07:35:38.419Z,59.13
2018-06-02T07:38:09.682Z,56.30
2018-06-02T07:40:40.302Z,55.47
2018-06-02T07:43:11.928Z,57.80
2018-06-02T07:45:43.699Z,55.40
2018-06-02T07:48:15.130Z,49.80
2018-06-02T07:50:46.274Z,48.43
2018-06-02T07:53:17.205Z,52.63
2018-06-02T07:55:47.944Z,47.67
2018-06-02T07:58:18.953Z,54.00
2018-06-02T08:00:50.866Z,51.47
2018-06-02T08:03:22.222Z,49.37
2018-06-02T08:05:54.136Z,43.33
2018-06-02T08:08:26.347Z,44.83
2018-06-02T08:10:58.195Z,41.00
2018-06-02T08:13:29.097Z,42.83
2018-06-02T08:15:59.970Z,37.53
2018-06-02T08:18:30.809Z,41.70
2018-06-02T08:21:01.789Z,39.93
2018-06-02T08:23:35.221Z,37.60
2018-06-02T08:26:07.438Z,33.20
2018-06-02T08:28:38.426Z,32.10
2018-06-02T08:31:09.546Z,38.33
2018-06-02T08:33:41.391Z,35.73
2018-06-02T08:36:12.371Z,34.77
2018-06-02T08:38:45.281Z,33.63
2018-06-02T08:41:16.929Z,33.03
2018-06-02T08:43:48.417Z,34.63
2018-06-02T08:46:19.755Z,28.43
2018-06-02T08:48:50.781Z,28.23
2018-06-02T08:51:21.803Z,33.33
2018-06-02T08:53:54.332Z,28.00
2018-06-02T08:56:25.359Z,27.77
2018-06-02T08:58:57.406Z,24.30
2018-06-02T09:01:29.022Z,22.53
2018-06-02T09:04:00.705Z,26.23
2018-06-02T09:06:33.174Z,29.07
2018-06-02T09:09:04.661Z,23.17
2018-06-02T09:11:35.718Z,25.47
2018-06-02T09:14:06.786Z,24.70
2018-06-02T09:16:38.728Z,28.53
2018-06-02T09:19:10.615Z,29.47
2018-06-02T09:21:42.744Z,30.00
2018-06-02T09:24:13.736Z,32.23
2018-06-02T09:26:45.885Z,32.10
2018-06-02T09:29:16.629Z,30.47
2018-06-02T09:31:47.518Z,28.37
2018-06-02T09:34:20.099Z,30.17
2018-06-02T09:36:55.038Z,30.70
2018-06-02T09:39:27.751Z,28.30
2018-06-02T09:42:04.678Z,28.03
2018-06-02T09:44:41.268Z,27.47
2018-06-02T09:47:13.458Z,21.60
2018-06-02T09:49:47.225Z,24.40
2018-06-02T09:52:19.169Z,27.07
2018-06-02T09:54:51.451Z,24.27
2018-06-02T09:57:24.354Z,28.83
2018-06-02T09:59:58.139Z,33.57
2018-06-02T10:02:30.489Z,29.67
2018-06-02T10:05:04.394Z,27.97
2018-06-02T10:07:38.593Z,26.27
2018-06-02T10:10:16.488Z,22.43
2018-06-02T10:12:51.849Z,26.30
2018-06-02T10:15:23.094Z,24.37
2018-06-02T10:17:53.803Z,25.80
2018-06-02T10:20:27.238Z,29.53
2018-06-02T10:22:58.878Z,26.10
2018-06-02T10:25:32.509Z,23.80
2018-06-02T10:28:03.199Z,23.20
2018-06-02T10:30:43.906Z,23.37
2018-06-02T10:33:14.716Z,20.60
2018-06-02T10:35:45.728Z,19.43
2018-06-02T10:38:16.656Z,26.20
2018-06-02T10:40:48.414Z,26.90
2018-06-02T10:43:19.114Z,28.60
2018-06-02T10:45:50.001Z,23.23
2018-06-02T10:48:21.296Z,21.77
2018-06-02T10:50:53.021Z,26.87
2018-06-02T10:53:23.964Z,26.40
2018-06-02T10:55:55.394Z,28.07
2018-06-02T10:58:26.413Z,31.43
2018-06-02T11:00:58.894Z,31.93
2018-06-02T11:03:30.462Z,33.90
2018-06-02T11:06:02.128Z,34.07
2018-06-02T11:08:33.555Z,29.90
2018-06-02T11:11:04.023Z,34.70
2018-06-02T11:13:35.282Z,33.33
2018-06-02T11:16:06.687Z,31.10
2018-06-02T11:18:38.611Z,32.77
2018-06-02T11:21:09.749Z,24.80
2018-06-02T11:23:41.238Z,28.97
2018-06-02T11:26:12.718Z,29.70
2018-06-02T11:28:45.421Z,28.23
2018-06-02T11:31:17.283Z,26.57
2018-06-02T11:33:48.623Z,27.03
2018-06-02T11:36:20.408Z,30.40
2018-06-02T11:38:51.694Z,28.87
2018-06-02T11:41:22.901Z,33.00
2018-06-02T11:43:55.622Z,27.20
2018-06-02T11:46:26.121Z,30.93
2018-06-02T11:48:58.163Z,32.67
2018-06-02T11:51:29.172Z,27.10
2018-06-02T11:54:00.140Z,33.30
2018-06-02T11:56:31.140Z,31.50
2018-06-02T11:59:02.075Z,34.13
2018-06-02T12:01:32.620Z,31.13
2018-06-02T12:04:04.842Z,31.23
2018-06-02T12:06:35.933Z,28.93
2018-06-02T12:09:17.733Z,36.27
2018-06-02T12:12:11.404Z,29.93
2018-06-02T12:14:56.931Z,33.87
2018-06-02T12:17:35.517Z,31.90
2018-06-02T12:20:06.490Z,29.13
2018-06-02T12:22:37.294Z,31.80
2018-06-02T12:25:07.917Z,30.27
2018-06-02T12:27:40.169Z,26.80
2018-06-02T12:30:11.005Z,30.93
2018-06-02T12:32:42.757Z,26.40
2018-06-02T12:35:13.378Z,34.80
2018-06-02T12:37:44.308Z,32.53
2018-06-02T12:40:16.628Z,30.43
2018-06-02T12:42:47.620Z,33.43
2018-06-02T12:45:19.313Z,27.93
2018-06-02T12:47:50.598Z,32.47
2018-06-02T12:52:57.637Z,31.93
2018-06-02T12:55:29.821Z,30.17
2018-06-02T12:58:02.970Z,29.87
2018-06-02T13:00:34.354Z,36.63
2018-06-02T13:03:05.993Z,29.50
2018-06-02T13:05:36.949Z,34.10
2018-06-02T13:08:07.855Z,35.37
2018-06-02T13:10:38.672Z,34.70
2018-06-02T13:13:10.019Z,39.90
2018-06-02T13:15:41.617Z,35.50
2018-06-02T13:18:12.945Z,33.07
2018-06-02T13:20:45.125Z,35.77
2018-06-02T13:23:16.125Z,34.07
2018-06-02T13:25:46.940Z,30.30
2018-06-02T13:28:18.887Z,33.70
2018-06-02T13:30:49.825Z,34.20
2018-06-02T13:33:21.225Z,36.37
2018-06-02T13:35:52.098Z,32.10
2018-06-02T13:38:22.869Z,34.00
2018-06-02T13:40:55.656Z,29.33
2018-06-02T13:43:27.078Z,36.20
2018-06-02T13:45:58.572Z,40.90
2018-06-02T13:48:29.416Z,35.50
2018-06-02T13:51:00.545Z,37.50
2018-06-02T13:53:31.318Z,32.97
2018-06-02T13:56:03.066Z,35.90
2018-06-02T13:58:35.660Z,33.83
2018-06-02T14:01:06.913Z,37.50
2018-06-02T14:03:38.488Z,34.97
2018-06-02T14:06:09.959Z,25.10
2018-06-02T14:08:40.853Z,30.20
2018-06-02T14:11:14.388Z,33.37
2018-06-02T14:13:46.850Z,34.30
2018-06-02T14:16:17.903Z,35.17
2018-06-02T14:18:49.990Z,35.50
2018-06-02T14:21:20.969Z,35.63
2018-06-02T14:23:52.649Z,38.90
2018-06-02T14:26:23.250Z,42.13
2018-06-02T14:28:54.568Z,40.43
2018-06-02T14:31:26.190Z,35.83
2018-06-02T14:34:00.089Z,38.87
2018-06-02T14:36:30.653Z,36.40
2018-06-02T14:39:01.741Z,36.70
2018-06-02T14:41:32.398Z,38.60
2018-06-02T14:44:04.528Z,38.47
2018-06-02T14:46:36.682Z,37.07
2018-06-02T14:49:07.198Z,33.17
2018-06-02T14:51:38.141Z,38.83
2018-06-02T14:54:09.516Z,39.57
2018-06-02T14:56:40.183Z,41.63
2018-06-02T14:59:11.213Z,40.27
2018-06-02T15:01:42.653Z,39.80
2018-06-02T15:04:13.431Z,40.23
2018-06-02T15:06:51.668Z,51.37
2018-06-02T15:09:23.562Z,41.70
2018-06-02T15:11:57.077Z,38.70
2018-06-02T15:14:28.568Z,43.10
2018-06-02T15:17:00.384Z,46.00
2018-06-02T15:19:30.851Z,46.10
2018-06-02T15:22:01.265Z,44.03
2018-06-02T15:24:32.325Z,41.80
2018-06-02T15:27:03.198Z,40.27
2018-06-02T15:29:34.810Z,42.47
2018-06-02T15:32:06.400Z,40.10
2018-06-02T15:34:39.960Z,42.30
2018-06-02T15:37:12.328Z,37.87
2018-06-02T15:39:44.114Z,42.27
2018-06-02T15:42:15.398Z,43.33
2018-06-02T15:44:47.173Z,35.37
2018-06-02T15:47:18.930Z,47.70
2018-06-02T15:49:49.593Z,37.03
2018-06-02T15:52:20.713Z,38.10
2018-06-02T15:54:55.555Z,38.03
2018-06-02T15:57:30.882Z,39.37
2018-06-02T16:00:03.108Z,42.43
2018-06-02T16:02:34.867Z,38.67
2018-06-02T16:05:06.522Z,43.70
2018-06-02T16:07:38.565Z,40.53
2018-06-02T16:10:11.694Z,41.10
2018-06-02T16:12:45.028Z,36.97
2018-06-02T16:15:17.095Z,35.70
2018-06-02T16:17:49.376Z,41.07
2018-06-02T16:20:31.415Z,39.47
2018-06-02T16:23:04.702Z,38.80
2018-06-02T16:25:38.153Z,36.37
2018-06-02T16:28:13.577Z,36.50
2018-06-02T16:30:45.453Z,38.70
2018-06-02T16:33:16.191Z,34.43
2018-06-02T16:35:47.504Z,38.17
2018-06-02T16:38:18.530Z,31.63
2018-06-02T16:40:50.357Z,30.77
2018-06-02T16:43:21.541Z,28.40
2018-06-02T16:45:53.457Z,29.57
2018-06-02T16:48:24.490Z,29.17
2018-06-02T16:50:56.359Z,32.30
2018-06-02T16:53:27.309Z,33.10
2018-06-02T16:55:59.201Z,39.03
2018-06-02T16:58:37.020Z,35.43
2018-06-02T17:01:08.955Z,30.33
2018-06-02T17:03:40.837Z,31.77
2018-06-02T17:06:13.248Z,39.40
2018-06-02T17:08:45.862Z,28.73
2018-06-02T17:11:20.130Z,31.63
2018-06-02T17:13:51.185Z,30.47
2018-06-02T17:16:23.550Z,32.50
2018-06-02T17:18:54.963Z,29.70
2018-06-02T17:21:28.536Z,30.20
2018-06-02T17:23:59.549Z,31.70
2018-06-02T17:26:33.156Z,32.30
2018-06-02T17:29:04.143Z,31.47
2018-06-02T17:31:34.943Z,33.63
2018-06-02T17:34:05.806Z,35.40
2018-06-02T17:36:36.897Z,29.00
2018-06-02T17:39:07.966Z,28.03
2018-06-02T17:41:38.929Z,27.63
2018-06-02T17:44:10.706Z,33.07
2018-06-02T17:46:42.565Z,35.70
2018-06-02T17:49:13.596Z,29.87
2018-06-02T17:51:44.937Z,32.00
2018-06-02T17:54:16.242Z,25.67
2018-06-02T17:56:47.791Z,26.80
2018-06-02T17:59:18.705Z,24.20
2018-06-02T18:01:49.771Z,24.70
2018-06-02T18:04:21.011Z,24.50
2018-06-02T18:06:52.153Z,23.97
2018-06-02T18:09:23.158Z,19.63
2018-06-02T18:11:54.229Z,20.63
2018-06-02T18:14:25.349Z,23.03
2018-06-02T18:16:56.296Z,22.57
2018-06-02T18:19:28.370Z,20.40
2018-06-02T18:21:59.343Z,20.00
2018-06-02T18:24:30.322Z,21.50
2018-06-02T18:27:01.059Z,23.90
2018-06-02T18:29:33.566Z,19.03
2018-06-02T18:32:04.881Z,21.97
2018-06-02T18:34:36.363Z,21.37
2018-06-02T18:37:08.092Z,24.70
2018-06-02T18:39:38.961Z,24.80
2018-06-02T18:42:10.622Z,22.90
2018-06-02T18:44:41.514Z,22.50
2018-06-02T18:47:13.138Z,24.47
2018-06-02T18:49:44.651Z,29.53
2018-06-02T18:52:15.768Z,23.17
2018-06-02T18:54:46.810Z,24.83
2018-06-02T18:57:19.558Z,24.40
2018-06-02T18:59:50.509Z,20.40
2018-06-02T19:02:21.518Z,20.63
2018-06-02T19:04:54.454Z,19.80
2018-06-02T19:07:25.794Z,21.90
2018-06-02T19:09:57.047Z,24.60
2018-06-02T19:12:28.822Z,21.17
2018-06-02T19:14:59.923Z,20.70
2018-06-02T19:17:30.626Z,15.27
2018-06-02T19:20:01.961Z,20.17
2018-06-02T19:22:32.962Z,21.13
2018-06-02T19:25:04.041Z,20.83
2018-06-02T19:27:35.970Z,19.90
2018-06-02T19:30:07.922Z,19.60
2018-06-02T19:32:38.898Z,18.77
2018-06-02T19:35:12.198Z,22.67
2018-06-02T19:37:43.722Z,25.40
2018-06-02T19:40:14.458Z,23.70
2018-06-02T19:42:46.385Z,27.67
2018-06-02T19:45:17.783Z,26.00
2018-06-02T19:47:48.307Z,17.63
2018-06-02T19:50:19.250Z,21.33
2018-06-02T19:52:51.765Z,19.63
2018-06-02T19:55:24.729Z,17.83
2018-06-02T19:57:56.738Z,19.43
2018-06-02T20:00:28.119Z,21.90
2018-06-02T20:02:59.813Z,24.00
2018-06-02T20:05:31.360Z,27.23
2018-06-02T20:08:02.335Z,22.23
2018-06-02T20:10:33.466Z,24.27
2018-06-02T20:13:05.356Z,22.77
2018-06-02T20:15:36.394Z,31.07
2018-06-02T20:18:07.392Z,28.63
2018-06-02T20:20:38.548Z,29.73
2018-06-02T20:23:10.158Z,28.07
2018-06-02T20:25:42.268Z,20.73
2018-06-02T20:28:12.789Z,20.80
2018-06-02T20:30:44.346Z,22.23
2018-06-02T20:33:14.865Z,20.40
2018-06-02T20:35:46.054Z,24.00
2018-06-02T20:38:17.353Z,25.87
2018-06-02T20:40:48.359Z,22.20
2018-06-02T20:43:19.108Z,19.53
2018-06-02T20:45:52.158Z,20.83
2018-06-02T20:48:23.186Z,21.73
2018-06-02T20:50:54.581Z,30.13
2018-06-02T20:53:25.573Z,18.70
2018-06-02T20:55:56.458Z,25.77
2018-06-02T20:58:27.497Z,27.50
2018-06-02T21:00:59.269Z,29.73
